Kirishima Maru No.7 — JL6513 — position and weather

sailwx.info

Track history (hours):
 
Tides and Currents Weather Stations Pressure Air Temp Water Temp Dewpoint Dewpoint Depression Visibility Wind Speed Wind Dir Waves Ship Positions

Kirishima Maru No.7

Last reported at 2017-Nov-13 02:00 UTC. Time now 2017-Nov-24 16:36 UTC.
Position N 34°25' E 135°14'.
Warning: this ship's position is 11 days out of date.

Length 104 m; draft 6.6 m.

Type: Tanker. MMSI: 431500526.

Date/timePositionNaut miles runAvg speedWind from/ knotsBaromVisibWave heightAir tempDewpointWater temp
2017-Nov-13 02:00N 34°25' E 135°14'0 0.0
2017-Nov-13 01:30N 34°25' E 135°14'0 0.0
2017-Nov-13 01:00N 34°25' E 135°14'0 0.0
2017-Nov-13 00:30N 34°25' E 135°14'0 0.5
2017-Nov-13 00:00N 34°25' E 135°14'2 4.1
2017-Nov-12 23:30N 34°23' E 135°13'0 0.1
2017-Nov-12 22:29N 34°23' E 135°12'0 0.0
2017-Nov-12 20:29N 34°23' E 135°12'0 0.0
2017-Nov-12 19:59N 34°23' E 135°12'0 0.0
2017-Nov-12 17:47N 34°23' E 135°12'0 0.0
2017-Nov-12 17:23N 34°23' E 135°12'0 0.0
2017-Nov-12 16:53N 34°23' E 135°12'0 0.0
2017-Nov-12 15:41N 34°23' E 135°12'0 0.0
2017-Nov-12 14:47N 34°23' E 135°12'0 1.7
2017-Nov-12 14:30N 34°24' E 135°12'611.3
2017-Nov-12 14:00N 34°28' E 135°08'612.5
2017-Nov-12 13:30N 34°34' E 135°04'612.5
2017-Nov-12 13:00N 34°37' E 134°58'713.4
2017-Nov-12 12:28N 34°33' E 134°50'7 0.2
2017-Nov-11 06:36N 34°37' E 134°58'114.6
2017-Nov-11 06:30N 34°38' E 134°59'713.3
2017-Nov-11 06:00N 34°34' E 135°06'612.6
2017-Nov-11 05:30N 34°28' E 135°09'611.0
2017-Nov-11 05:00N 34°24' E 135°13'1 2.6
2017-Nov-11 04:28N 34°25' E 135°14'0 0.0
2017-Nov-11 01:54N 34°25' E 135°14'0 0.0
2017-Nov-11 00:48N 34°25' E 135°14'0 0.0
2017-Nov-11 00:29N 34°25' E 135°14'0 0.8
2017-Nov-11 00:00N 34°25' E 135°14'2 3.7
2017-Nov-10 23:30N 34°23' E 135°13'0 0.0
2017-Nov-10 21:59N 34°23' E 135°13'0 0.1
2017-Nov-10 21:26N 34°23' E 135°13'3 6.3
2017-Nov-10 20:58N 34°25' E 135°10'612.4
2017-Nov-10 20:30N 34°30' E 135°07'612.5
2017-Nov-10 20:00N 34°36' E 135°03'611.5
2017-Nov-10 19:30N 34°36' E 134°56'5 0.2
2017-Nov-09 17:04N 34°34' E 134°50'213.7
2017-Nov-09 16:54N 34°35' E 134°52'513.3
2017-Nov-09 16:30N 34°37' E 134°58'612.6
2017-Nov-09 16:00N 34°35' E 135°05'612.9
2017-Nov-09 15:30N 34°29' E 135°04'712.8
2017-Nov-09 15:00N 34°22' E 135°02'612.5
2017-Nov-09 14:28N 34°16' E 134°59'612.3
2017-Nov-09 14:00N 34°10' E 134°60'612.3
2017-Nov-09 13:30N 34°04' E 134°60'611.9
2017-Nov-09 13:00N 33°58' E 135°00'24110.1
2017-Nov-08 13:12N 35°05' E 139°41'212.0
2017-Nov-08 13:00N 35°06' E 139°43'612.4
2017-Nov-08 12:30N 35°12' E 139°46'612.8
2017-Nov-08 12:00N 35°18' E 139°44'612.3
2017-Nov-08 11:30N 35°24' E 139°43'612.3
2017-Nov-08 11:01N 35°28' E 139°49'612.3
2017-Nov-08 10:30N 35°32' E 139°55'3 0.4
2017-Nov-08 02:31N 35°33' E 139°58'0 0.0
2017-Nov-08 02:28N 35°33' E 139°58'0 0.0
2017-Nov-08 02:00N 35°33' E 139°58'7 0.8
2017-Nov-07 17:17N 35°29' E 139°52'312.2
2017-Nov-07 17:00N 35°27' E 139°49'611.9
2017-Nov-07 16:31N 35°22' E 139°45'510.9
2017-Nov-07 16:00N 35°16' E 139°46'611.0
2017-Nov-07 15:30N 35°11' E 139°46'  
2017-Nov-04 07:24N 34°36' E 134°55'511.8
2017-Nov-04 07:00N 34°37' E 135°01'5 9.1
2017-Nov-04 06:30N 34°35' E 135°05'510.1
2017-Nov-04 06:01N 34°30' E 135°08'611.1
2017-Nov-04 05:30N 34°25' E 135°10'3 5.3
2017-Nov-04 04:54N 34°25' E 135°14'0 0.0
2017-Nov-04 00:54N 34°25' E 135°14'0 0.0
2017-Nov-04 00:30N 34°25' E 135°14'0 0.9
2017-Nov-04 00:00N 34°25' E 135°14'2 3.4
2017-Nov-03 23:30N 34°23' E 135°13'0 0.0
2017-Nov-03 22:44N 34°23' E 135°13'0 0.0
2017-Nov-03 22:26N 34°23' E 135°13'0 0.0
2017-Nov-03 21:50N 34°23' E 135°13'0 0.0
2017-Nov-03 21:20N 34°23' E 135°13'0 0.0
2017-Nov-03 20:56N 34°23' E 135°13'0 0.1
2017-Nov-03 20:29N 34°23' E 135°13'3 5.6
2017-Nov-03 20:00N 34°25' E 135°10'612.3
2017-Nov-03 19:30N 34°30' E 135°06'611.9
2017-Nov-03 19:00N 34°35' E 135°03'612.0
2017-Nov-03 18:28N 34°36' E 134°55'  
Track history (hours):
 
Tides and Currents Weather Stations Pressure Air Temp Water Temp Dewpoint Dewpoint Depression Visibility Wind Speed Wind Dir Waves Ship Positions

Kirishima Maru No.7

Last reported at 2017-Nov-13 02:00 UTC. Time now 2017-Nov-24 16:36 UTC.
Position N 34°25' E 135°14'.
Warning: this ship's position is 11 days out of date.

Length 104 m; draft 6.6 m.

Type: Tanker. MMSI: 431500526.

Date/timePositionNaut miles runAvg speedWind from/ knotsBaromVisibWave heightAir tempDewpointWater temp
2017-Nov-13 02:00N 34°25' E 135°14'0 0.0
2017-Nov-13 01:30N 34°25' E 135°14'0 0.0
2017-Nov-13 01:00N 34°25' E 135°14'0 0.0
2017-Nov-13 00:30N 34°25' E 135°14'0 0.5
2017-Nov-13 00:00N 34°25' E 135°14'2 4.1
2017-Nov-12 23:30N 34°23' E 135°13'0 0.1
2017-Nov-12 22:29N 34°23' E 135°12'0 0.0
2017-Nov-12 20:29N 34°23' E 135°12'0 0.0
2017-Nov-12 19:59N 34°23' E 135°12'0 0.0
2017-Nov-12 17:47N 34°23' E 135°12'0 0.0
2017-Nov-12 17:23N 34°23' E 135°12'0 0.0
2017-Nov-12 16:53N 34°23' E 135°12'0 0.0
2017-Nov-12 15:41N 34°23' E 135°12'0 0.0
2017-Nov-12 14:47N 34°23' E 135°12'0 1.7
2017-Nov-12 14:30N 34°24' E 135°12'611.3
2017-Nov-12 14:00N 34°28' E 135°08'612.5
2017-Nov-12 13:30N 34°34' E 135°04'612.5
2017-Nov-12 13:00N 34°37' E 134°58'713.4
2017-Nov-12 12:28N 34°33' E 134°50'7 0.2
2017-Nov-11 06:36N 34°37' E 134°58'114.6
2017-Nov-11 06:30N 34°38' E 134°59'713.3
2017-Nov-11 06:00N 34°34' E 135°06'612.6
2017-Nov-11 05:30N 34°28' E 135°09'611.0
2017-Nov-11 05:00N 34°24' E 135°13'1 2.6
2017-Nov-11 04:28N 34°25' E 135°14'0 0.0
2017-Nov-11 01:54N 34°25' E 135°14'0 0.0
2017-Nov-11 00:48N 34°25' E 135°14'0 0.0
2017-Nov-11 00:29N 34°25' E 135°14'0 0.8
2017-Nov-11 00:00N 34°25' E 135°14'2 3.7
2017-Nov-10 23:30N 34°23' E 135°13'0 0.0
2017-Nov-10 21:59N 34°23' E 135°13'0 0.1
2017-Nov-10 21:26N 34°23' E 135°13'3 6.3
2017-Nov-10 20:58N 34°25' E 135°10'612.4
2017-Nov-10 20:30N 34°30' E 135°07'612.5
2017-Nov-10 20:00N 34°36' E 135°03'611.5
2017-Nov-10 19:30N 34°36' E 134°56'5 0.2
2017-Nov-09 17:04N 34°34' E 134°50'213.7
2017-Nov-09 16:54N 34°35' E 134°52'513.3
2017-Nov-09 16:30N 34°37' E 134°58'612.6
2017-Nov-09 16:00N 34°35' E 135°05'612.9
2017-Nov-09 15:30N 34°29' E 135°04'712.8
2017-Nov-09 15:00N 34°22' E 135°02'612.5
2017-Nov-09 14:28N 34°16' E 134°59'612.3
2017-Nov-09 14:00N 34°10' E 134°60'612.3
2017-Nov-09 13:30N 34°04' E 134°60'611.9
2017-Nov-09 13:00N 33°58' E 135°00'24110.1
2017-Nov-08 13:12N 35°05' E 139°41'212.0
2017-Nov-08 13:00N 35°06' E 139°43'612.4
2017-Nov-08 12:30N 35°12' E 139°46'612.8
2017-Nov-08 12:00N 35°18' E 139°44'612.3
2017-Nov-08 11:30N 35°24' E 139°43'612.3
2017-Nov-08 11:01N 35°28' E 139°49'612.3
2017-Nov-08 10:30N 35°32' E 139°55'3 0.4
2017-Nov-08 02:31N 35°33' E 139°58'0 0.0
2017-Nov-08 02:28N 35°33' E 139°58'0 0.0
2017-Nov-08 02:00N 35°33' E 139°58'7 0.8
2017-Nov-07 17:17N 35°29' E 139°52'312.2
2017-Nov-07 17:00N 35°27' E 139°49'611.9
2017-Nov-07 16:31N 35°22' E 139°45'510.9
2017-Nov-07 16:00N 35°16' E 139°46'611.0
2017-Nov-07 15:30N 35°11' E 139°46'  
2017-Nov-04 07:24N 34°36' E 134°55'511.8
2017-Nov-04 07:00N 34°37' E 135°01'5 9.1
2017-Nov-04 06:30N 34°35' E 135°05'510.1
2017-Nov-04 06:01N 34°30' E 135°08'611.1
2017-Nov-04 05:30N 34°25' E 135°10'3 5.3
2017-Nov-04 04:54N 34°25' E 135°14'0 0.0
2017-Nov-04 00:54N 34°25' E 135°14'0 0.0
2017-Nov-04 00:30N 34°25' E 135°14'0 0.9
2017-Nov-04 00:00N 34°25' E 135°14'2 3.4
2017-Nov-03 23:30N 34°23' E 135°13'0 0.0
2017-Nov-03 22:44N 34°23' E 135°13'0 0.0
2017-Nov-03 22:26N 34°23' E 135°13'0 0.0
2017-Nov-03 21:50N 34°23' E 135°13'0 0.0
2017-Nov-03 21:20N 34°23' E 135°13'0 0.0
2017-Nov-03 20:56N 34°23' E 135°13'0 0.1
2017-Nov-03 20:29N 34°23' E 135°13'3 5.6
2017-Nov-03 20:00N 34°25' E 135°10'612.3
2017-Nov-03 19:30N 34°30' E 135°06'611.9
2017-Nov-03 19:00N 34°35' E 135°03'612.0
2017-Nov-03 18:28N 34°36' E 134°55'  

Dump ship's entire track history